Terminal Aerodrome Forecast
Issued by NWS

Home | Current Version | Previous Version | Text Only | Print | Product List | Glossary On
Versions: 1 2 3 4 5 6 7 8 9 10 11 12 13 14 15 16 17 18 19 20 21 22 23 24 25 26
000
FTUS43 KDMX 301740
TAFMCW
TAF
KMCW 301740Z 3018/0118 06015G22KT 6SM SHRA SCT009 OVC015
     FM302000 06017G25KT P6SM VCSH OVC008
     FM302300 06015G24KT P6SM VCTS OVC008CB
     FM010200 06015G22KT P6SM VCSH OVC006
     FM010700 06009KT P6SM VCSH OVC005
     FM011500 30015G24KT P6SM -RA OVC006=

USA.gov is the U.S. government's official web portal to all federal, state and local government web resources and services.